Walker, Arkansas
Current Conditions -  °F | °C
As of 5:56 AM on Monday 24 Nov 2014 (Local Time) from KSRC Reporting Station
Clear Clear  
Wind Chill: 41°   Ceiling: Unl
Heat Index: 45°   Visibility: 10mi
Dew Point: 35°   Wind: 8mph
Humidity: 68%   Direction: 260°W
Pressure: 29.77"   Gusts: NA
Location:  35.2662°N, 91.8491°W
Report Text: KSRC 241156Z AUTO 26007KT 10SM CLR 07/02 A2977 RMK AO2 SLP087 70058 T00720017 10156 20072 51057 TSNO
Loading
Personal Weather Stations






























Interactive Weather Map New forecast layout! Learn more

10-Day Weather Forecast

Advertisements
Track Severe Weather on mobile